sensor_id;sensor_type;location;lat;lon;timestamp;P1;durP1;ratioP1;P2;durP2;ratioP2
66487;SDS011;53304;54.550;18.526;2023-01-31T00:01:06;6.63;;;2.00;;
66487;SDS011;53304;54.550;18.526;2023-01-31T00:03:35;6.78;;;2.03;;
66487;SDS011;53304;54.550;18.526;2023-01-31T00:06:12;5.30;;;1.80;;
66487;SDS011;53304;54.550;18.526;2023-01-31T00:08:48;3.83;;;1.70;;
66487;SDS011;53304;54.550;18.526;2023-01-31T00:11:15;4.82;;;1.98;;
66487;SDS011;53304;54.550;18.526;2023-01-31T00:13:41;4.90;;;1.95;;
66487;SDS011;53304;54.550;18.526;2023-01-31T00:16:12;4.63;;;1.80;;
66487;SDS011;53304;54.550;18.526;2023-01-31T00:18:38;4.30;;;1.90;;
66487;SDS011;53304;54.550;18.526;2023-01-31T00:21:08;5.93;;;1.90;;
66487;SDS011;53304;54.550;18.526;2023-01-31T00:23:38;5.25;;;1.88;;
66487;SDS011;53304;54.550;18.526;2023-01-31T00:26:08;6.03;;;2.20;;
66487;SDS011;53304;54.550;18.526;2023-01-31T00:28:33;6.40;;;2.15;;
66487;SDS011;53304;54.550;18.526;2023-01-31T00:30:59;4.53;;;1.63;;
66487;SDS011;53304;54.550;18.526;2023-01-31T00:33:26;6.53;;;2.00;;
66487;SDS011;53304;54.550;18.526;2023-01-31T00:35:52;5.65;;;2.03;;
66487;SDS011;53304;54.550;18.526;2023-01-31T00:38:25;5.05;;;1.60;;
66487;SDS011;53304;54.550;18.526;2023-01-31T00:40:52;6.65;;;2.03;;
66487;SDS011;53304;54.550;18.526;2023-01-31T00:43:21;4.20;;;1.70;;
66487;SDS011;53304;54.550;18.526;2023-01-31T00:45:48;5.10;;;1.60;;
66487;SDS011;53304;54.550;18.526;2023-01-31T00:48:16;4.70;;;1.80;;
66487;SDS011;53304;54.550;18.526;2023-01-31T00:50:42;5.50;;;1.92;;
66487;SDS011;53304;54.550;18.526;2023-01-31T00:53:09;5.30;;;1.80;;
66487;SDS011;53304;54.550;18.526;2023-01-31T00:55:37;3.30;;;1.55;;
66487;SDS011;53304;54.550;18.526;2023-01-31T00:58:05;5.22;;;1.88;;
66487;SDS011;53304;54.550;18.526;2023-01-31T01:00:33;4.88;;;1.67;;
66487;SDS011;53304;54.550;18.526;2023-01-31T01:03:03;5.85;;;2.00;;
66487;SDS011;53304;54.550;18.526;2023-01-31T01:05:29;6.00;;;1.73;;
66487;SDS011;53304;54.550;18.526;2023-01-31T01:07:54;6.38;;;2.10;;
66487;SDS011;53304;54.550;18.526;2023-01-31T01:10:22;4.25;;;1.73;;
66487;SDS011;53304;54.550;18.526;2023-01-31T01:12:47;6.70;;;1.80;;
66487;SDS011;53304;54.550;18.526;2023-01-31T01:15:15;4.97;;;1.70;;
66487;SDS011;53304;54.550;18.526;2023-01-31T01:17:43;6.05;;;1.70;;
66487;SDS011;53304;54.550;18.526;2023-01-31T01:20:11;6.18;;;1.60;;
66487;SDS011;53304;54.550;18.526;2023-01-31T01:22:36;5.03;;;1.60;;
66487;SDS011;53304;54.550;18.526;2023-01-31T01:25:03;4.65;;;1.90;;
66487;SDS011;53304;54.550;18.526;2023-01-31T01:27:29;6.13;;;1.75;;
66487;SDS011;53304;54.550;18.526;2023-01-31T01:29:55;5.47;;;1.70;;
66487;SDS011;53304;54.550;18.526;2023-01-31T01:32:20;6.05;;;1.65;;
66487;SDS011;53304;54.550;18.526;2023-01-31T01:34:48;3.92;;;1.42;;
66487;SDS011;53304;54.550;18.526;2023-01-31T01:37:13;5.63;;;1.65;;
66487;SDS011;53304;54.550;18.526;2023-01-31T01:39:47;5.43;;;1.50;;
66487;SDS011;53304;54.550;18.526;2023-01-31T01:42:21;4.57;;;1.67;;
66487;SDS011;53304;54.550;18.526;2023-01-31T01:44:54;3.25;;;1.42;;
66487;SDS011;53304;54.550;18.526;2023-01-31T01:52:45;4.72;;;1.52;;
66487;SDS011;53304;54.550;18.526;2023-01-31T01:55:18;4.80;;;1.60;;
66487;SDS011;53304;54.550;18.526;2023-01-31T01:57:47;4.25;;;1.40;;
66487;SDS011;53304;54.550;18.526;2023-01-31T02:00:19;4.72;;;1.75;;
66487;SDS011;53304;54.550;18.526;2023-01-31T02:02:49;5.15;;;1.88;;
66487;SDS011;53304;54.550;18.526;2023-01-31T02:05:27;3.15;;;1.25;;
66487;SDS011;53304;54.550;18.526;2023-01-31T02:07:55;4.20;;;1.55;;
66487;SDS011;53304;54.550;18.526;2023-01-31T02:10:29;5.18;;;1.40;;
66487;SDS011;53304;54.550;18.526;2023-01-31T02:12:57;3.13;;;1.33;;
66487;SDS011;53304;54.550;18.526;2023-01-31T02:15:27;4.03;;;1.63;;
66487;SDS011;53304;54.550;18.526;2023-01-31T02:17:55;3.60;;;1.13;;
66487;SDS011;53304;54.550;18.526;2023-01-31T02:20:26;5.28;;;1.50;;
66487;SDS011;53304;54.550;18.526;2023-01-31T02:34:30;4.13;;;1.30;;
66487;SDS011;53304;54.550;18.526;2023-01-31T02:39:52;3.90;;;1.30;;
66487;SDS011;53304;54.550;18.526;2023-01-31T02:42:28;4.20;;;1.30;;
66487;SDS011;53304;54.550;18.526;2023-01-31T02:50:36;3.78;;;1.40;;
66487;SDS011;53304;54.550;18.526;2023-01-31T02:53:31;6.15;;;1.48;;
66487;SDS011;53304;54.550;18.526;2023-01-31T02:59:05;3.28;;;1.20;;
66487;SDS011;53304;54.550;18.526;2023-01-31T03:01:35;4.15;;;1.35;;
66487;SDS011;53304;54.550;18.526;2023-01-31T03:04:05;2.88;;;1.20;;
66487;SDS011;53304;54.550;18.526;2023-01-31T03:09:02;4.57;;;1.40;;
66487;SDS011;53304;54.550;18.526;2023-01-31T03:11:43;2.70;;;1.13;;
66487;SDS011;53304;54.550;18.526;2023-01-31T03:14:28;3.97;;;1.38;;
66487;SDS011;53304;54.550;18.526;2023-01-31T03:23:23;3.80;;;1.20;;
66487;SDS011;53304;54.550;18.526;2023-01-31T03:25:30;3.92;;;1.52;;
66487;SDS011;53304;54.550;18.526;2023-01-31T03:30:32;3.03;;;1.10;;
66487;SDS011;53304;54.550;18.526;2023-01-31T03:33:28;4.80;;;1.17;;
66487;SDS011;53304;54.550;18.526;2023-01-31T03:36:01;4.57;;;1.13;;
66487;SDS011;53304;54.550;18.526;2023-01-31T03:44:23;3.90;;;1.20;;
66487;SDS011;53304;54.550;18.526;2023-01-31T03:46:52;2.90;;;1.50;;
66487;SDS011;53304;54.550;18.526;2023-01-31T03:49:20;3.22;;;1.00;;
66487;SDS011;53304;54.550;18.526;2023-01-31T03:51:50;3.20;;;1.10;;
66487;SDS011;53304;54.550;18.526;2023-01-31T03:54:24;2.40;;;1.10;;
66487;SDS011;53304;54.550;18.526;2023-01-31T03:56:59;2.00;;;0.77;;
66487;SDS011;53304;54.550;18.526;2023-01-31T03:59:47;4.22;;;1.02;;
66487;SDS011;53304;54.550;18.526;2023-01-31T04:02:18;3.38;;;1.27;;
66487;SDS011;53304;54.550;18.526;2023-01-31T04:04:53;2.65;;;1.10;;
66487;SDS011;53304;54.550;18.526;2023-01-31T04:07:28;3.08;;;1.05;;
66487;SDS011;53304;54.550;18.526;2023-01-31T04:09:53;2.95;;;1.08;;
66487;SDS011;53304;54.550;18.526;2023-01-31T04:12:19;4.10;;;1.20;;
66487;SDS011;53304;54.550;18.526;2023-01-31T04:14:45;3.30;;;1.02;;
66487;SDS011;53304;54.550;18.526;2023-01-31T04:17:10;2.25;;;1.00;;
66487;SDS011;53304;54.550;18.526;2023-01-31T04:19:40;3.58;;;1.20;;
66487;SDS011;53304;54.550;18.526;2023-01-31T04:22:05;3.50;;;1.27;;
66487;SDS011;53304;54.550;18.526;2023-01-31T04:24:33;3.13;;;1.15;;
66487;SDS011;53304;54.550;18.526;2023-01-31T04:26:58;2.55;;;0.82;;
66487;SDS011;53304;54.550;18.526;2023-01-31T04:29:26;2.55;;;0.98;;
66487;SDS011;53304;54.550;18.526;2023-01-31T04:31:54;3.33;;;1.10;;
66487;SDS011;53304;54.550;18.526;2023-01-31T04:34:19;3.17;;;1.17;;
66487;SDS011;53304;54.550;18.526;2023-01-31T04:36:52;3.42;;;1.10;;
66487;SDS011;53304;54.550;18.526;2023-01-31T04:39:17;2.97;;;1.00;;
66487;SDS011;53304;54.550;18.526;2023-01-31T04:41:45;3.28;;;1.05;;
66487;SDS011;53304;54.550;18.526;2023-01-31T04:44:13;5.07;;;1.20;;
66487;SDS011;53304;54.550;18.526;2023-01-31T04:46:41;2.85;;;1.10;;
66487;SDS011;53304;54.550;18.526;2023-01-31T04:49:10;1.25;;;0.80;;
66487;SDS011;53304;54.550;18.526;2023-01-31T04:51:39;3.13;;;1.25;;
66487;SDS011;53304;54.550;18.526;2023-01-31T04:54:04;3.58;;;0.90;;
66487;SDS011;53304;54.550;18.526;2023-01-31T04:56:29;3.05;;;1.30;;
66487;SDS011;53304;54.550;18.526;2023-01-31T04:58:58;2.70;;;1.00;;
66487;SDS011;53304;54.550;18.526;2023-01-31T05:01:24;2.67;;;1.10;;
66487;SDS011;53304;54.550;18.526;2023-01-31T05:03:55;3.65;;;1.20;;
66487;SDS011;53304;54.550;18.526;2023-01-31T05:06:21;2.47;;;0.93;;
66487;SDS011;53304;54.550;18.526;2023-01-31T05:08:46;3.28;;;0.90;;
66487;SDS011;53304;54.550;18.526;2023-01-31T05:11:12;3.67;;;1.20;;
66487;SDS011;53304;54.550;18.526;2023-01-31T05:13:43;3.45;;;1.00;;
66487;SDS011;53304;54.550;18.526;2023-01-31T05:16:10;1.92;;;0.80;;
66487;SDS011;53304;54.550;18.526;2023-01-31T05:18:38;2.55;;;0.90;;
66487;SDS011;53304;54.550;18.526;2023-01-31T05:21:04;2.17;;;0.88;;
66487;SDS011;53304;54.550;18.526;2023-01-31T05:23:31;2.35;;;1.10;;
66487;SDS011;53304;54.550;18.526;2023-01-31T05:25:57;3.15;;;1.00;;
66487;SDS011;53304;54.550;18.526;2023-01-31T05:28:25;4.50;;;1.30;;
66487;SDS011;53304;54.550;18.526;2023-01-31T05:30:53;3.60;;;1.00;;
66487;SDS011;53304;54.550;18.526;2023-01-31T05:33:21;3.17;;;1.10;;
66487;SDS011;53304;54.550;18.526;2023-01-31T05:35:47;3.25;;;1.10;;
66487;SDS011;53304;54.550;18.526;2023-01-31T05:38:17;2.67;;;0.93;;
66487;SDS011;53304;54.550;18.526;2023-01-31T05:40:43;2.10;;;0.93;;
66487;SDS011;53304;54.550;18.526;2023-01-31T05:43:10;2.28;;;0.88;;
66487;SDS011;53304;54.550;18.526;2023-01-31T05:45:36;3.15;;;1.05;;
66487;SDS011;53304;54.550;18.526;2023-01-31T05:48:03;3.08;;;1.02;;
66487;SDS011;53304;54.550;18.526;2023-01-31T05:50:29;2.38;;;1.02;;
66487;SDS011;53304;54.550;18.526;2023-01-31T05:52:57;2.53;;;1.10;;
66487;SDS011;53304;54.550;18.526;2023-01-31T05:55:24;2.67;;;1.00;;
66487;SDS011;53304;54.550;18.526;2023-01-31T05:57:53;1.67;;;0.90;;
66487;SDS011;53304;54.550;18.526;2023-01-31T06:00:21;4.22;;;1.10;;
66487;SDS011;53304;54.550;18.526;2023-01-31T06:02:47;3.65;;;1.20;;
66487;SDS011;53304;54.550;18.526;2023-01-31T06:05:15;2.35;;;1.20;;
66487;SDS011;53304;54.550;18.526;2023-01-31T06:07:40;2.42;;;1.20;;
66487;SDS011;53304;54.550;18.526;2023-01-31T06:10:09;2.47;;;1.10;;
66487;SDS011;53304;54.550;18.526;2023-01-31T06:12:35;2.67;;;0.95;;
66487;SDS011;53304;54.550;18.526;2023-01-31T06:15:03;2.47;;;1.15;;
66487;SDS011;53304;54.550;18.526;2023-01-31T06:17:29;3.47;;;1.05;;
66487;SDS011;53304;54.550;18.526;2023-01-31T06:19:57;4.18;;;1.13;;
66487;SDS011;53304;54.550;18.526;2023-01-31T06:22:23;3.20;;;1.10;;
66487;SDS011;53304;54.550;18.526;2023-01-31T06:24:48;3.50;;;1.20;;
66487;SDS011;53304;54.550;18.526;2023-01-31T06:27:16;3.60;;;1.10;;
66487;SDS011;53304;54.550;18.526;2023-01-31T06:29:41;3.45;;;1.20;;
66487;SDS011;53304;54.550;18.526;2023-01-31T06:32:07;3.50;;;1.30;;
66487;SDS011;53304;54.550;18.526;2023-01-31T06:34:34;3.25;;;1.30;;
66487;SDS011;53304;54.550;18.526;2023-01-31T06:37:02;2.80;;;1.13;;
66487;SDS011;53304;54.550;18.526;2023-01-31T06:39:30;2.90;;;1.10;;
66487;SDS011;53304;54.550;18.526;2023-01-31T06:41:55;2.90;;;1.00;;
66487;SDS011;53304;54.550;18.526;2023-01-31T06:44:26;3.67;;;1.08;;
66487;SDS011;53304;54.550;18.526;2023-01-31T06:46:57;3.45;;;1.20;;
66487;SDS011;53304;54.550;18.526;2023-01-31T06:49:25;3.45;;;0.90;;
66487;SDS011;53304;54.550;18.526;2023-01-31T06:51:53;3.70;;;1.20;;
66487;SDS011;53304;54.550;18.526;2023-01-31T06:54:21;3.40;;;1.10;;
66487;SDS011;53304;54.550;18.526;2023-01-31T06:56:49;3.78;;;1.27;;
66487;SDS011;53304;54.550;18.526;2023-01-31T06:59:19;2.40;;;1.02;;
66487;SDS011;53304;54.550;18.526;2023-01-31T07:01:44;3.80;;;1.30;;
66487;SDS011;53304;54.550;18.526;2023-01-31T07:04:12;4.30;;;1.15;;
66487;SDS011;53304;54.550;18.526;2023-01-31T07:06:40;4.20;;;1.35;;
66487;SDS011;53304;54.550;18.526;2023-01-31T07:09:05;3.05;;;1.42;;
66487;SDS011;53304;54.550;18.526;2023-01-31T07:11:31;3.03;;;0.90;;
66487;SDS011;53304;54.550;18.526;2023-01-31T07:14:03;3.20;;;1.17;;
66487;SDS011;53304;54.550;18.526;2023-01-31T07:16:29;2.35;;;1.23;;
66487;SDS011;53304;54.550;18.526;2023-01-31T07:19:01;3.67;;;1.30;;
66487;SDS011;53304;54.550;18.526;2023-01-31T07:21:29;4.28;;;1.40;;
66487;SDS011;53304;54.550;18.526;2023-01-31T07:23:54;5.03;;;1.30;;
66487;SDS011;53304;54.550;18.526;2023-01-31T07:26:22;4.53;;;1.30;;
66487;SDS011;53304;54.550;18.526;2023-01-31T07:28:48;4.38;;;1.33;;
66487;SDS011;53304;54.550;18.526;2023-01-31T07:31:15;3.47;;;1.20;;
66487;SDS011;53304;54.550;18.526;2023-01-31T07:33:45;3.22;;;1.27;;
66487;SDS011;53304;54.550;18.526;2023-01-31T07:36:14;4.22;;;1.38;;
66487;SDS011;53304;54.550;18.526;2023-01-31T07:38:40;3.60;;;1.40;;
66487;SDS011;53304;54.550;18.526;2023-01-31T07:41:08;2.72;;;1.20;;
66487;SDS011;53304;54.550;18.526;2023-01-31T07:43:37;2.88;;;1.08;;
66487;SDS011;53304;54.550;18.526;2023-01-31T07:46:05;4.00;;;1.40;;
66487;SDS011;53304;54.550;18.526;2023-01-31T07:48:33;4.70;;;1.52;;
66487;SDS011;53304;54.550;18.526;2023-01-31T07:50:59;4.95;;;1.40;;
66487;SDS011;53304;54.550;18.526;2023-01-31T07:53:28;2.63;;;1.30;;
66487;SDS011;53304;54.550;18.526;2023-01-31T07:56:09;3.83;;;1.40;;
66487;SDS011;53304;54.550;18.526;2023-01-31T07:58:39;2.72;;;1.10;;
66487;SDS011;53304;54.550;18.526;2023-01-31T08:01:06;4.38;;;1.52;;
66487;SDS011;53304;54.550;18.526;2023-01-31T08:03:50;3.78;;;1.10;;
66487;SDS011;53304;54.550;18.526;2023-01-31T08:06:16;3.13;;;1.30;;
66487;SDS011;53304;54.550;18.526;2023-01-31T08:08:42;3.17;;;1.40;;
66487;SDS011;53304;54.550;18.526;2023-01-31T08:11:09;5.53;;;1.48;;
66487;SDS011;53304;54.550;18.526;2023-01-31T08:13:37;3.92;;;1.50;;
66487;SDS011;53304;54.550;18.526;2023-01-31T08:16:05;4.20;;;1.40;;
66487;SDS011;53304;54.550;18.526;2023-01-31T08:18:33;3.33;;;1.33;;
66487;SDS011;53304;54.550;18.526;2023-01-31T08:21:04;3.97;;;1.35;;
66487;SDS011;53304;54.550;18.526;2023-01-31T08:23:30;3.38;;;1.45;;
66487;SDS011;53304;54.550;18.526;2023-01-31T08:25:59;4.03;;;1.38;;
66487;SDS011;53304;54.550;18.526;2023-01-31T08:28:29;4.03;;;1.33;;
66487;SDS011;53304;54.550;18.526;2023-01-31T08:30:55;4.70;;;1.30;;
66487;SDS011;53304;54.550;18.526;2023-01-31T08:33:22;3.72;;;1.35;;
66487;SDS011;53304;54.550;18.526;2023-01-31T08:35:53;4.65;;;1.40;;
66487;SDS011;53304;54.550;18.526;2023-01-31T08:38:21;4.63;;;1.15;;
66487;SDS011;53304;54.550;18.526;2023-01-31T08:40:46;4.60;;;1.77;;
66487;SDS011;53304;54.550;18.526;2023-01-31T08:43:12;4.70;;;1.65;;
66487;SDS011;53304;54.550;18.526;2023-01-31T08:45:42;3.78;;;1.50;;
66487;SDS011;53304;54.550;18.526;2023-01-31T08:48:09;3.55;;;1.45;;
66487;SDS011;53304;54.550;18.526;2023-01-31T08:50:38;3.17;;;1.20;;
66487;SDS011;53304;54.550;18.526;2023-01-31T08:53:03;3.63;;;1.42;;
66487;SDS011;53304;54.550;18.526;2023-01-31T08:55:30;3.58;;;1.40;;
66487;SDS011;53304;54.550;18.526;2023-01-31T08:58:01;3.87;;;1.20;;
66487;SDS011;53304;54.550;18.526;2023-01-31T09:00:29;4.72;;;1.50;;
66487;SDS011;53304;54.550;18.526;2023-01-31T09:02:56;2.97;;;1.30;;
66487;SDS011;53304;54.550;18.526;2023-01-31T09:05:23;4.05;;;1.30;;
66487;SDS011;53304;54.550;18.526;2023-01-31T09:07:50;6.25;;;1.65;;
66487;SDS011;53304;54.550;18.526;2023-01-31T09:10:18;3.97;;;1.35;;
66487;SDS011;53304;54.550;18.526;2023-01-31T09:12:47;3.60;;;1.35;;
66487;SDS011;53304;54.550;18.526;2023-01-31T09:15:12;3.78;;;1.10;;
66487;SDS011;53304;54.550;18.526;2023-01-31T09:17:41;4.40;;;1.42;;
66487;SDS011;53304;54.550;18.526;2023-01-31T09:20:10;3.40;;;1.50;;
66487;SDS011;53304;54.550;18.526;2023-01-31T09:22:35;4.95;;;1.40;;
66487;SDS011;53304;54.550;18.526;2023-01-31T09:25:01;4.20;;;1.30;;
66487;SDS011;53304;54.550;18.526;2023-01-31T09:27:27;4.47;;;1.42;;
66487;SDS011;53304;54.550;18.526;2023-01-31T09:29:56;3.33;;;1.48;;
66487;SDS011;53304;54.550;18.526;2023-01-31T09:32:21;3.92;;;1.33;;
66487;SDS011;53304;54.550;18.526;2023-01-31T09:34:49;3.13;;;1.45;;
66487;SDS011;53304;54.550;18.526;2023-01-31T09:37:15;3.67;;;1.42;;
66487;SDS011;53304;54.550;18.526;2023-01-31T09:39:40;3.55;;;1.20;;
66487;SDS011;53304;54.550;18.526;2023-01-31T09:44:48;3.35;;;1.20;;
66487;SDS011;53304;54.550;18.526;2023-01-31T09:47:43;3.53;;;1.38;;
66487;SDS011;53304;54.550;18.526;2023-01-31T09:52:42;4.88;;;1.30;;
66487;SDS011;53304;54.550;18.526;2023-01-31T09:55:54;6.20;;;1.48;;
66487;SDS011;53304;54.550;18.526;2023-01-31T09:58:02;4.05;;;1.50;;
66487;SDS011;53304;54.550;18.526;2023-01-31T10:05:49;4.55;;;1.20;;
66487;SDS011;53304;54.550;18.526;2023-01-31T10:11:04;4.00;;;1.30;;
66487;SDS011;53304;54.550;18.526;2023-01-31T10:13:36;5.00;;;1.52;;
66487;SDS011;53304;54.550;18.526;2023-01-31T10:18:43;3.95;;;1.27;;
66487;SDS011;53304;54.550;18.526;2023-01-31T10:21:15;4.88;;;1.50;;
66487;SDS011;53304;54.550;18.526;2023-01-31T10:23:54;2.93;;;1.10;;
66487;SDS011;53304;54.550;18.526;2023-01-31T10:26:24;3.55;;;1.40;;
66487;SDS011;53304;54.550;18.526;2023-01-31T10:28:57;4.15;;;1.40;;
66487;SDS011;53304;54.550;18.526;2023-01-31T10:31:35;3.60;;;1.15;;
66487;SDS011;53304;54.550;18.526;2023-01-31T10:34:25;3.58;;;1.00;;
66487;SDS011;53304;54.550;18.526;2023-01-31T10:39:39;4.03;;;1.38;;
66487;SDS011;53304;54.550;18.526;2023-01-31T10:44:57;7.30;;;1.60;;
66487;SDS011;53304;54.550;18.526;2023-01-31T10:47:49;3.72;;;1.25;;
66487;SDS011;53304;54.550;18.526;2023-01-31T10:50:29;3.30;;;1.30;;
66487;SDS011;53304;54.550;18.526;2023-01-31T10:58:03;2.97;;;1.25;;
66487;SDS011;53304;54.550;18.526;2023-01-31T11:00:30;3.95;;;1.25;;
66487;SDS011;53304;54.550;18.526;2023-01-31T11:02:59;3.70;;;1.23;;
66487;SDS011;53304;54.550;18.526;2023-01-31T11:05:26;4.53;;;1.52;;
66487;SDS011;53304;54.550;18.526;2023-01-31T11:07:54;3.50;;;1.20;;
66487;SDS011;53304;54.550;18.526;2023-01-31T11:10:25;4.32;;;1.40;;
66487;SDS011;53304;54.550;18.526;2023-01-31T11:13:02;3.58;;;1.45;;
66487;SDS011;53304;54.550;18.526;2023-01-31T11:15:38;2.67;;;1.17;;
66487;SDS011;53304;54.550;18.526;2023-01-31T11:18:06;4.45;;;1.40;;
66487;SDS011;53304;54.550;18.526;2023-01-31T11:20:44;4.28;;;1.40;;
66487;SDS011;53304;54.550;18.526;2023-01-31T11:23:14;5.72;;;1.60;;
66487;SDS011;53304;54.550;18.526;2023-01-31T11:25:47;4.03;;;1.35;;
66487;SDS011;53304;54.550;18.526;2023-01-31T11:28:23;5.45;;;1.15;;
66487;SDS011;53304;54.550;18.526;2023-01-31T11:30:55;3.50;;;1.27;;
66487;SDS011;53304;54.550;18.526;2023-01-31T11:36:09;3.25;;;1.30;;
66487;SDS011;53304;54.550;18.526;2023-01-31T11:38:39;4.40;;;1.30;;
66487;SDS011;53304;54.550;18.526;2023-01-31T11:44:16;3.58;;;1.52;;
66487;SDS011;53304;54.550;18.526;2023-01-31T11:46:46;3.50;;;1.40;;
66487;SDS011;53304;54.550;18.526;2023-01-31T11:49:28;3.75;;;1.30;;
66487;SDS011;53304;54.550;18.526;2023-01-31T11:51:57;3.85;;;1.30;;
66487;SDS011;53304;54.550;18.526;2023-01-31T11:54:24;3.67;;;1.30;;
66487;SDS011;53304;54.550;18.526;2023-01-31T11:56:56;4.40;;;1.27;;
66487;SDS011;53304;54.550;18.526;2023-01-31T11:59:29;4.28;;;1.20;;
66487;SDS011;53304;54.550;18.526;2023-01-31T12:01:55;3.63;;;1.40;;
66487;SDS011;53304;54.550;18.526;2023-01-31T12:04:24;4.95;;;1.33;;
66487;SDS011;53304;54.550;18.526;2023-01-31T12:07:03;3.93;;;1.37;;
66487;SDS011;53304;54.550;18.526;2023-01-31T12:09:39;3.35;;;1.30;;
66487;SDS011;53304;54.550;18.526;2023-01-31T12:12:20;3.67;;;1.10;;
66487;SDS011;53304;54.550;18.526;2023-01-31T12:14:48;5.15;;;1.55;;
66487;SDS011;53304;54.550;18.526;2023-01-31T12:17:18;4.07;;;1.40;;
66487;SDS011;53304;54.550;18.526;2023-01-31T12:20:28;2.60;;;1.20;;
66487;SDS011;53304;54.550;18.526;2023-01-31T12:22:48;2.27;;;1.20;;
66487;SDS011;53304;54.550;18.526;2023-01-31T12:41:24;3.33;;;1.20;;
66487;SDS011;53304;54.550;18.526;2023-01-31T12:52:24;3.55;;;1.30;;
66487;SDS011;53304;54.550;18.526;2023-01-31T13:05:47;3.42;;;1.40;;
66487;SDS011;53304;54.550;18.526;2023-01-31T13:08:29;4.30;;;1.35;;
66487;SDS011;53304;54.550;18.526;2023-01-31T13:16:16;3.58;;;1.30;;
66487;SDS011;53304;54.550;18.526;2023-01-31T13:18:48;3.67;;;1.40;;
66487;SDS011;53304;54.550;18.526;2023-01-31T13:21:16;5.50;;;1.50;;
66487;SDS011;53304;54.550;18.526;2023-01-31T13:23:45;3.42;;;1.27;;
66487;SDS011;53304;54.550;18.526;2023-01-31T13:26:17;3.70;;;1.27;;
66487;SDS011;53304;54.550;18.526;2023-01-31T13:29:00;3.20;;;1.30;;
66487;SDS011;53304;54.550;18.526;2023-01-31T13:31:27;4.43;;;1.60;;
66487;SDS011;53304;54.550;18.526;2023-01-31T13:36:45;3.08;;;1.10;;
66487;SDS011;53304;54.550;18.526;2023-01-31T13:39:14;3.63;;;1.40;;
66487;SDS011;53304;54.550;18.526;2023-01-31T13:41:45;3.10;;;1.13;;
66487;SDS011;53304;54.550;18.526;2023-01-31T13:44:12;3.80;;;1.20;;
66487;SDS011;53304;54.550;18.526;2023-01-31T13:46:55;4.25;;;1.38;;
66487;SDS011;53304;54.550;18.526;2023-01-31T13:49:28;3.38;;;1.20;;
66487;SDS011;53304;54.550;18.526;2023-01-31T13:51:58;3.45;;;1.25;;
66487;SDS011;53304;54.550;18.526;2023-01-31T13:57:06;2.40;;;1.00;;
66487;SDS011;53304;54.550;18.526;2023-01-31T13:59:41;4.15;;;1.10;;
66487;SDS011;53304;54.550;18.526;2023-01-31T14:02:17;4.32;;;1.40;;
66487;SDS011;53304;54.550;18.526;2023-01-31T14:04:43;3.67;;;1.35;;
66487;SDS011;53304;54.550;18.526;2023-01-31T14:09:37;2.30;;;1.13;;
66487;SDS011;53304;54.550;18.526;2023-01-31T14:14:41;2.92;;;1.30;;
66487;SDS011;53304;54.550;18.526;2023-01-31T14:27:21;3.85;;;1.40;;
66487;SDS011;53304;54.550;18.526;2023-01-31T14:29:51;3.17;;;1.23;;
66487;SDS011;53304;54.550;18.526;2023-01-31T14:32:35;3.25;;;1.30;;
66487;SDS011;53304;54.550;18.526;2023-01-31T14:48:21;3.95;;;1.20;;
66487;SDS011;53304;54.550;18.526;2023-01-31T14:59:35;3.08;;;1.25;;
66487;SDS011;53304;54.550;18.526;2023-01-31T15:07:22;3.47;;;1.10;;
66487;SDS011;53304;54.550;18.526;2023-01-31T15:09:50;4.07;;;1.30;;
66487;SDS011;53304;54.550;18.526;2023-01-31T15:15:51;4.80;;;1.30;;
66487;SDS011;53304;54.550;18.526;2023-01-31T15:18:12;2.97;;;1.30;;
66487;SDS011;53304;54.550;18.526;2023-01-31T15:20:44;3.85;;;1.40;;
66487;SDS011;53304;54.550;18.526;2023-01-31T15:23:25;2.85;;;1.30;;
66487;SDS011;53304;54.550;18.526;2023-01-31T15:25:53;4.47;;;1.30;;
66487;SDS011;53304;54.550;18.526;2023-01-31T15:28:26;4.03;;;1.20;;
66487;SDS011;53304;54.550;18.526;2023-01-31T15:30:57;4.00;;;1.40;;
66487;SDS011;53304;54.550;18.526;2023-01-31T15:33:37;2.55;;;1.10;;
66487;SDS011;53304;54.550;18.526;2023-01-31T15:36:14;2.80;;;1.23;;
66487;SDS011;53304;54.550;18.526;2023-01-31T15:38:54;3.08;;;1.30;;
66487;SDS011;53304;54.550;18.526;2023-01-31T15:41:37;3.42;;;1.10;;
66487;SDS011;53304;54.550;18.526;2023-01-31T15:44:11;2.78;;;1.00;;
66487;SDS011;53304;54.550;18.526;2023-01-31T15:46:42;3.30;;;1.30;;
66487;SDS011;53304;54.550;18.526;2023-01-31T15:54:50;3.63;;;1.27;;
66487;SDS011;53304;54.550;18.526;2023-01-31T15:57:20;3.33;;;1.33;;
66487;SDS011;53304;54.550;18.526;2023-01-31T15:59:48;2.95;;;1.30;;
66487;SDS011;53304;54.550;18.526;2023-01-31T16:02:32;2.80;;;1.20;;
66487;SDS011;53304;54.550;18.526;2023-01-31T16:05:03;4.75;;;1.63;;
66487;SDS011;53304;54.550;18.526;2023-01-31T16:07:30;4.63;;;1.45;;
66487;SDS011;53304;54.550;18.526;2023-01-31T16:09:56;3.60;;;1.40;;
66487;SDS011;53304;54.550;18.526;2023-01-31T16:12:22;5.65;;;1.80;;
66487;SDS011;53304;54.550;18.526;2023-01-31T16:14:49;2.95;;;1.20;;
66487;SDS011;53304;54.550;18.526;2023-01-31T16:17:15;4.03;;;1.45;;
66487;SDS011;53304;54.550;18.526;2023-01-31T16:19:44;2.67;;;1.38;;
66487;SDS011;53304;54.550;18.526;2023-01-31T16:22:26;3.60;;;1.40;;
66487;SDS011;53304;54.550;18.526;2023-01-31T16:25:01;3.33;;;1.30;;
66487;SDS011;53304;54.550;18.526;2023-01-31T16:27:29;4.05;;;1.35;;
66487;SDS011;53304;54.550;18.526;2023-01-31T16:29:57;3.75;;;1.30;;
66487;SDS011;53304;54.550;18.526;2023-01-31T16:32:27;3.30;;;1.45;;
66487;SDS011;53304;54.550;18.526;2023-01-31T16:37:58;3.17;;;1.60;;
66487;SDS011;53304;54.550;18.526;2023-01-31T16:40:19;4.30;;;1.73;;
66487;SDS011;53304;54.550;18.526;2023-01-31T16:42:46;4.95;;;1.75;;
66487;SDS011;53304;54.550;18.526;2023-01-31T16:45:48;4.47;;;1.63;;
66487;SDS011;53304;54.550;18.526;2023-01-31T17:02:01;5.75;;;1.83;;
66487;SDS011;53304;54.550;18.526;2023-01-31T17:04:31;3.57;;;1.50;;
66487;SDS011;53304;54.550;18.526;2023-01-31T17:07:03;5.80;;;1.80;;
66487;SDS011;53304;54.550;18.526;2023-01-31T17:09:30;23.08;;;3.15;;
66487;SDS011;53304;54.550;18.526;2023-01-31T17:11:56;28.17;;;2.78;;
66487;SDS011;53304;54.550;18.526;2023-01-31T17:14:22;9.65;;;2.15;;
66487;SDS011;53304;54.550;18.526;2023-01-31T17:16:51;11.38;;;2.20;;
66487;SDS011;53304;54.550;18.526;2023-01-31T17:19:17;13.65;;;2.20;;
66487;SDS011;53304;54.550;18.526;2023-01-31T17:21:43;7.75;;;2.03;;
66487;SDS011;53304;54.550;18.526;2023-01-31T17:24:15;9.68;;;2.30;;
66487;SDS011;53304;54.550;18.526;2023-01-31T17:26:46;11.60;;;2.20;;
66487;SDS011;53304;54.550;18.526;2023-01-31T17:29:14;9.98;;;2.20;;
66487;SDS011;53304;54.550;18.526;2023-01-31T17:31:42;14.88;;;2.60;;
66487;SDS011;53304;54.550;18.526;2023-01-31T17:34:12;7.07;;;2.17;;
66487;SDS011;53304;54.550;18.526;2023-01-31T17:36:43;9.02;;;2.15;;
66487;SDS011;53304;54.550;18.526;2023-01-31T17:39:12;13.02;;;2.08;;
66487;SDS011;53304;54.550;18.526;2023-01-31T17:41:37;12.65;;;2.50;;
66487;SDS011;53304;54.550;18.526;2023-01-31T17:44:05;8.85;;;2.05;;
66487;SDS011;53304;54.550;18.526;2023-01-31T17:46:32;8.00;;;1.80;;
66487;SDS011;53304;54.550;18.526;2023-01-31T17:48:57;9.43;;;2.15;;
66487;SDS011;53304;54.550;18.526;2023-01-31T17:51:23;11.38;;;2.15;;
66487;SDS011;53304;54.550;18.526;2023-01-31T17:53:48;4.93;;;1.70;;
66487;SDS011;53304;54.550;18.526;2023-01-31T17:56:14;9.88;;;1.85;;
66487;SDS011;53304;54.550;18.526;2023-01-31T17:58:44;7.00;;;1.90;;
66487;SDS011;53304;54.550;18.526;2023-01-31T18:01:10;9.07;;;2.28;;